createdAt,value
2022-10-17T00:00:03.022Z,492.4910
2022-10-17T00:00:14.256Z,495.4180
2022-10-17T00:00:25.405Z,493.2200
2022-10-17T00:00:36.605Z,496.1560
2022-10-17T00:00:47.810Z,494.3170
2022-10-17T00:00:59.008Z,496.1560
2022-10-17T00:01:10.164Z,496.1560
2022-10-17T00:01:21.486Z,497.6370
2022-10-17T00:01:32.686Z,495.4180
2022-10-17T00:01:43.892Z,496.5250
2022-10-17T00:01:55.067Z,496.5250
2022-10-17T00:02:06.206Z,495.7870
2022-10-17T00:02:17.405Z,497.6370
2022-10-17T00:02:28.624Z,496.1560
2022-10-17T00:02:39.687Z,496.8950
2022-10-17T00:02:50.765Z,495.4180
2022-10-17T00:03:01.953Z,498.3810
2022-10-17T00:03:13.010Z,498.0080
2022-10-17T00:03:24.074Z,497.6370
2022-10-17T00:03:35.165Z,495.0510
2022-10-17T00:03:46.368Z,498.3810
2022-10-17T00:03:57.566Z,497.6370
2022-10-17T00:04:08.767Z,501.0020
2022-10-17T00:04:19.985Z,498.3810
2022-10-17T00:04:31.075Z,498.3810
2022-10-17T00:04:42.127Z,498.0080
2022-10-17T00:04:53.254Z,499.8750
2022-10-17T00:05:04.473Z,500.2500
2022-10-17T00:05:15.646Z,500.2500
2022-10-17T00:05:26.846Z,496.8950
2022-10-17T00:05:38.045Z,501.3780
2022-10-17T00:05:49.246Z,499.1270
2022-10-17T00:06:00.445Z,501.0020
2022-10-17T00:06:11.646Z,501.3780
2022-10-17T00:06:22.686Z,499.8750
2022-10-17T00:06:33.725Z,502.1330
2022-10-17T00:06:44.938Z,500.6250
2022-10-17T00:06:56.147Z,502.1330
2022-10-17T00:07:07.332Z,501.3780
2022-10-17T00:07:18.549Z,499.1270
2022-10-17T00:07:30.280Z,502.1330
2022-10-17T00:07:41.906Z,500.2500
2022-10-17T00:07:53.085Z,501.3780
2022-10-17T00:08:04.346Z,501.3780
2022-10-17T00:08:15.485Z,502.1330
2022-10-17T00:08:26.686Z,502.8910
2022-10-17T00:08:37.895Z,503.2700
2022-10-17T00:08:49.085Z,501.0020
2022-10-17T00:09:00.285Z,502.1330
2022-10-17T00:09:11.495Z,504.0310
2022-10-17T00:09:22.553Z,500.6250
2022-10-17T00:09:33.633Z,503.6500
2022-10-17T00:09:44.765Z,501.7560
2022-10-17T00:09:55.965Z,502.1330
2022-10-17T00:10:07.175Z,502.8910
2022-10-17T00:10:18.371Z,502.5120
2022-10-17T00:10:29.566Z,504.4120
2022-10-17T00:10:41.127Z,501.3780
2022-10-17T00:10:52.206Z,502.1330
2022-10-17T00:11:03.284Z,502.5120
2022-10-17T00:11:14.371Z,502.8910
2022-10-17T00:11:25.429Z,502.1330
2022-10-17T00:11:36.497Z,504.7940
2022-10-17T00:11:47.664Z,504.4120
2022-10-17T00:11:58.849Z,504.0310
2022-10-17T00:12:10.054Z,505.5600
2022-10-17T00:12:21.246Z,504.7940
2022-10-17T00:12:32.446Z,505.1770
2022-10-17T00:12:43.649Z,504.4120
2022-10-17T00:12:54.845Z,502.8910
2022-10-17T00:13:06.083Z,505.9430
2022-10-17T00:13:17.257Z,505.1770
2022-10-17T00:13:28.382Z,504.7940
2022-10-17T00:13:39.445Z,505.9430
2022-10-17T00:13:50.534Z,505.1770
2022-10-17T00:14:01.737Z,505.9430
2022-10-17T00:14:12.935Z,504.4120
2022-10-17T00:14:24.156Z,503.6500
2022-10-17T00:14:35.325Z,505.1770
2022-10-17T00:14:46.534Z,503.2700
2022-10-17T00:14:57.726Z,506.7120
2022-10-17T00:15:08.933Z,505.9430
2022-10-17T00:15:20.126Z,506.7120
2022-10-17T00:15:31.173Z,508.2570
2022-10-17T00:15:42.222Z,508.6450
2022-10-17T00:15:53.407Z,507.4830
2022-10-17T00:16:04.612Z,507.8700
2022-10-17T00:16:15.813Z,505.5600
2022-10-17T00:16:27.005Z,509.0330
2022-10-17T00:16:38.214Z,508.2570
2022-10-17T00:16:49.413Z,505.9430
2022-10-17T00:17:00.613Z,507.8700
2022-10-17T00:17:11.805Z,509.8110
2022-10-17T00:17:22.847Z,506.7120
2022-10-17T00:17:33.894Z,510.2010
2022-10-17T00:17:45.093Z,509.0330
2022-10-17T00:17:56.316Z,508.2570
2022-10-17T00:18:07.525Z,510.9830
2022-10-17T00:18:18.693Z,508.6450
2022-10-17T00:18:29.902Z,507.4830
2022-10-17T00:18:40.963Z,508.6450
2022-10-17T00:18:52.025Z,509.4220
2022-10-17T00:19:03.174Z,511.3750
2022-10-17T00:19:14.373Z,510.2010
2022-10-17T00:19:25.573Z,509.0330
2022-10-17T00:19:36.765Z,510.5920
2022-10-17T00:19:47.965Z,511.3750
2022-10-17T00:19:59.166Z,509.8110
2022-10-17T00:20:10.365Z,509.8110
2022-10-17T00:20:21.565Z,510.9830
2022-10-17T00:20:32.777Z,510.9830
2022-10-17T00:20:43.844Z,509.0330
2022-10-17T00:20:54.903Z,512.5540
2022-10-17T00:21:06.046Z,512.9490
2022-10-17T00:21:17.252Z,512.1610
2022-10-17T00:21:28.448Z,511.7680
2022-10-17T00:21:39.645Z,512.1610
2022-10-17T00:21:50.853Z,513.7390
2022-10-17T00:22:02.045Z,510.5920
2022-10-17T00:22:13.245Z,512.9490
2022-10-17T00:22:24.458Z,511.3750
2022-10-17T00:22:46.714Z,513.7390
2022-10-17T00:22:57.800Z,515.3270
2022-10-17T00:23:08.955Z,514.1350
2022-10-17T00:23:20.134Z,513.7390
2022-10-17T00:23:31.325Z,515.3270
2022-10-17T00:23:42.533Z,514.5320
2022-10-17T00:23:53.593Z,514.1350
2022-10-17T00:24:04.657Z,514.9290
2022-10-17T00:24:15.805Z,517.3260
2022-10-17T00:24:27.022Z,515.7260
2022-10-17T00:24:38.213Z,516.1250
2022-10-17T00:24:49.414Z,514.1350
2022-10-17T00:25:00.605Z,515.3270
2022-10-17T00:25:11.814Z,514.9290
2022-10-17T00:25:23.012Z,516.9250
2022-10-17T00:25:34.206Z,516.9250
2022-10-17T00:25:45.405Z,516.1250
2022-10-17T00:25:56.605Z,515.3270
2022-10-17T00:26:07.806Z,515.3270
2022-10-17T00:26:19.009Z,517.7280
2022-10-17T00:26:30.108Z,515.3270
2022-10-17T00:26:41.414Z,517.3260
2022-10-17T00:26:52.455Z,514.9290
2022-10-17T00:27:03.536Z,517.7280
2022-10-17T00:27:14.694Z,516.1250
2022-10-17T00:27:26.359Z,516.9250
2022-10-17T00:27:37.776Z,517.7280
2022-10-17T00:27:48.835Z,514.9290
2022-10-17T00:27:59.905Z,516.9250
2022-10-17T00:28:11.043Z,516.1250
2022-10-17T00:28:22.285Z,516.1250
2022-10-17T00:28:33.512Z,515.7260
2022-10-17T00:28:44.658Z,516.9250
2022-10-17T00:28:55.744Z,516.1250
2022-10-17T00:29:06.821Z,517.3260
2022-10-17T00:29:17.887Z,517.7280
2022-10-17T00:29:29.117Z,518.5330
2022-10-17T00:29:40.293Z,517.7280
2022-10-17T00:29:51.488Z,519.3400
2022-10-17T00:30:02.687Z,520.5570
2022-10-17T00:30:13.897Z,516.1250
2022-10-17T00:30:24.944Z,518.5330
2022-10-17T00:30:36.006Z,517.7280
2022-10-17T00:30:47.165Z,518.5330
2022-10-17T00:30:58.372Z,519.3400
2022-10-17T00:31:09.405Z,520.9630
2022-10-17T00:31:20.446Z,516.9250
2022-10-17T00:31:31.656Z,520.9630
2022-10-17T00:31:42.868Z,518.5330
2022-10-17T00:32:05.096Z,517.7280
2022-10-17T00:32:16.165Z,517.7280
2022-10-17T00:32:27.654Z,520.5570
2022-10-17T00:32:39.215Z,518.1300
2022-10-17T00:32:50.376Z,520.5570
2022-10-17T00:33:01.445Z,519.3400
2022-10-17T00:33:12.545Z,518.5330
2022-10-17T00:33:23.683Z,518.1300
2022-10-17T00:33:34.846Z,517.7280
2022-10-17T00:33:46.064Z,520.1510
2022-10-17T00:33:57.106Z,520.9630
2022-10-17T00:34:08.186Z,519.3400
2022-10-17T00:34:19.326Z,520.1510
2022-10-17T00:34:30.525Z,517.7280
2022-10-17T00:34:41.725Z,520.9630
2022-10-17T00:34:52.934Z,520.1510
2022-10-17T00:35:04.125Z,517.7280
2022-10-17T00:35:15.334Z,520.9630
2022-10-17T00:35:26.525Z,520.1510
2022-10-17T00:35:37.726Z,519.3400
2022-10-17T00:35:48.933Z,518.5330
2022-10-17T00:36:00.125Z,518.9360
2022-10-17T00:36:11.325Z,522.1870
2022-10-17T00:36:22.534Z,521.7790
2022-10-17T00:36:33.726Z,518.9360
2022-10-17T00:36:44.925Z,520.1510
2022-10-17T00:36:55.969Z,520.9630
2022-10-17T00:37:07.006Z,522.5970
2022-10-17T00:37:18.206Z,519.7450
2022-10-17T00:37:29.412Z,520.9630
2022-10-17T00:37:40.612Z,521.7790
2022-10-17T00:37:51.807Z,521.7790
2022-10-17T00:38:03.005Z,523.4170
2022-10-17T00:38:14.103Z,521.7790
2022-10-17T00:38:25.197Z,521.7790
2022-10-17T00:38:36.294Z,521.7790
2022-10-17T00:38:47.492Z,521.7790
2022-10-17T00:38:58.685Z,521.3710
2022-10-17T00:39:09.892Z,523.4170
2022-10-17T00:39:21.095Z,521.7790
2022-10-17T00:39:32.295Z,520.1510
2022-10-17T00:39:43.485Z,524.2400
2022-10-17T00:39:54.692Z,522.5970
2022-10-17T00:40:05.885Z,523.8280
2022-10-17T00:40:16.925Z,522.5970
2022-10-17T00:40:27.983Z,523.0060
2022-10-17T00:40:39.174Z,524.2400
2022-10-17T00:40:50.408Z,524.6520
2022-10-17T00:41:01.459Z,522.1870
2022-10-17T00:41:12.506Z,524.2400
2022-10-17T00:41:23.573Z,524.2400
2022-10-17T00:41:34.637Z,523.4170
2022-10-17T00:41:45.725Z,523.4170
2022-10-17T00:41:56.926Z,523.0060
2022-10-17T00:42:08.134Z,525.8940
2022-10-17T00:42:19.335Z,524.2400
2022-10-17T00:42:31.003Z,522.5970
2022-10-17T00:42:42.414Z,525.0650
2022-10-17T00:42:53.568Z,522.5970
2022-10-17T00:43:04.765Z,524.2400
2022-10-17T00:43:15.997Z,524.2400
2022-10-17T00:43:27.054Z,521.7790
2022-10-17T00:43:38.102Z,526.7240
2022-10-17T00:43:49.258Z,523.4170
2022-10-17T00:44:00.455Z,525.4790
2022-10-17T00:44:11.647Z,523.4170
2022-10-17T00:44:22.705Z,524.2400
2022-10-17T00:44:33.814Z,523.0060
2022-10-17T00:44:44.933Z,524.2400
2022-10-17T00:44:56.127Z,524.2400
2022-10-17T00:45:07.325Z,526.7240
2022-10-17T00:45:18.532Z,524.2400
2022-10-17T00:45:29.734Z,521.3710
2022-10-17T00:45:40.926Z,525.4790
2022-10-17T00:45:52.127Z,527.5580
2022-10-17T00:46:03.325Z,524.2400
2022-10-17T00:46:14.534Z,525.4790
2022-10-17T00:46:25.575Z,523.8280
2022-10-17T00:46:36.646Z,524.2400
2022-10-17T00:46:47.813Z,527.1410
2022-10-17T00:46:59.005Z,525.8940
2022-10-17T00:47:10.054Z,525.4790
2022-10-17T00:47:21.112Z,524.6520
2022-10-17T00:47:32.165Z,525.0650
2022-10-17T00:47:43.238Z,526.3090
2022-10-17T00:47:54.373Z,522.5970
2022-10-17T00:48:05.567Z,525.8940
2022-10-17T00:48:21.173Z,524.6520
2022-10-17T00:48:33.775Z,519.3400
2022-10-17T00:48:44.925Z,518.5330
2022-10-17T00:48:56.125Z,521.3710
2022-10-17T00:49:07.336Z,524.2400
2022-10-17T00:49:18.534Z,524.2400
2022-10-17T00:49:29.735Z,522.5970
2022-10-17T00:49:40.933Z,520.9630
2022-10-17T00:49:52.262Z,524.2400
2022-10-17T00:50:03.327Z,520.9630
2022-10-17T00:50:14.534Z,521.7790
2022-10-17T00:50:25.728Z,524.2400
2022-10-17T00:50:36.933Z,522.5970
2022-10-17T00:50:47.983Z,523.0060
2022-10-17T00:50:59.058Z,524.2400
2022-10-17T00:51:10.096Z,526.7240
2022-10-17T00:51:21.174Z,523.0060
2022-10-17T00:51:32.304Z,525.0650
2022-10-17T00:51:43.487Z,524.6520
2022-10-17T00:51:54.688Z,525.0650
2022-10-17T00:52:05.896Z,526.7240
2022-10-17T00:52:17.093Z,527.5580
2022-10-17T00:52:28.709Z,526.7240
2022-10-17T00:52:39.905Z,524.6520
2022-10-17T00:52:51.014Z,526.7240
2022-10-17T00:53:02.205Z,524.6520
2022-10-17T00:53:13.412Z,524.2400
2022-10-17T00:53:24.654Z,527.9760
2022-10-17T00:53:35.703Z,526.3090
2022-10-17T00:53:46.775Z,527.9760
2022-10-17T00:53:57.885Z,525.4790
2022-10-17T00:54:09.094Z,525.8940
2022-10-17T00:54:20.286Z,527.9760
2022-10-17T00:54:31.493Z,527.9760
2022-10-17T00:54:42.685Z,528.3940
2022-10-17T00:54:53.885Z,527.5580
2022-10-17T00:55:05.093Z,525.8940
2022-10-17T00:55:16.255Z,529.2330
2022-10-17T00:55:27.456Z,527.5580
2022-10-17T00:55:38.654Z,530.0740
2022-10-17T00:55:50.527Z,526.7240
2022-10-17T00:56:01.694Z,527.1410
2022-10-17T00:56:12.885Z,527.9760
2022-10-17T00:56:24.096Z,529.2330
2022-10-17T00:56:35.136Z,530.9180
2022-10-17T00:56:46.215Z,529.6530
2022-10-17T00:56:57.365Z,532.6140
2022-10-17T00:57:08.565Z,530.4960
2022-10-17T00:57:19.766Z,530.0740
2022-10-17T00:57:30.965Z,529.2330
2022-10-17T00:57:42.173Z,531.7650
2022-10-17T00:57:53.366Z,531.3410
2022-10-17T00:58:04.565Z,531.3410
2022-10-17T00:58:15.776Z,530.9180
2022-10-17T00:58:27.106Z,531.7650
2022-10-17T00:58:38.165Z,530.4960
2022-10-17T00:58:49.365Z,530.0740
2022-10-17T00:59:00.596Z,529.2330
2022-10-17T00:59:11.774Z,530.0740
2022-10-17T00:59:22.969Z,530.9180
2022-10-17T00:59:34.175Z,532.6140
2022-10-17T00:59:45.396Z,532.6140
2022-10-17T00:59:56.573Z,534.3210
2022-10-17T01:00:07.774Z,531.7650
2022-10-17T01:00:18.975Z,530.9180
2022-10-17T01:00:30.036Z,533.4670
2022-10-17T01:00:41.138Z,532.1890
2022-10-17T01:00:52.254Z,535.1790
2022-10-17T01:01:03.509Z,534.3210
2022-10-17T01:01:14.693Z,531.7650
2022-10-17T01:01:25.905Z,532.6140
2022-10-17T01:01:37.093Z,532.1890
2022-10-17T01:01:48.179Z,533.0400
2022-10-17T01:01:59.244Z,532.6140
2022-10-17T01:02:10.293Z,535.6090
2022-10-17T01:02:21.533Z,534.7500
2022-10-17T01:02:32.734Z,533.4670
2022-10-17T01:02:43.814Z,533.4670
2022-10-17T01:02:54.885Z,534.3210
2022-10-17T01:03:06.014Z,537.7690
2022-10-17T01:03:17.232Z,535.1790
2022-10-17T01:03:28.435Z,534.7500
2022-10-17T01:03:39.623Z,536.0400
2022-10-17T01:03:50.683Z,535.1790
2022-10-17T01:04:01.751Z,535.6090
2022-10-17T01:04:12.911Z,534.3210
2022-10-17T01:04:24.085Z,536.9030
2022-10-17T01:04:35.286Z,536.0400
2022-10-17T01:04:46.485Z,539.0730
2022-10-17T01:04:57.686Z,535.6090
2022-10-17T01:05:08.886Z,533.8940
2022-10-17T01:05:20.093Z,538.2030
2022-10-17T01:05:31.135Z,536.9030
2022-10-17T01:05:42.193Z,539.0730
2022-10-17T01:05:53.373Z,535.6090
2022-10-17T01:06:04.574Z,537.3350
2022-10-17T01:06:15.770Z,538.6370
2022-10-17T01:06:26.966Z,534.3210
2022-10-17T01:06:38.165Z,538.6370
2022-10-17T01:06:49.376Z,538.6370
2022-10-17T01:07:00.563Z,537.7690
2022-10-17T01:07:11.765Z,536.9030
2022-10-17T01:07:22.972Z,538.6370
2022-10-17T01:07:37.145Z,539.5090
2022-10-17T01:07:48.618Z,532.1890
2022-10-17T01:07:59.767Z,534.7500
2022-10-17T01:08:10.973Z,534.3210
2022-10-17T01:08:22.028Z,535.1790
2022-10-17T01:08:33.103Z,534.7500
2022-10-17T01:08:44.257Z,536.0400
2022-10-17T01:08:55.445Z,536.4710
2022-10-17T01:09:06.654Z,538.6370
2022-10-17T01:09:17.853Z,537.7690
2022-10-17T01:09:29.054Z,538.2030
2022-10-17T01:09:40.245Z,536.9030
2022-10-17T01:09:51.446Z,537.3350
2022-10-17T01:10:02.654Z,537.7690
2022-10-17T01:10:13.894Z,541.2610
2022-10-17T01:10:24.935Z,541.7000
2022-10-17T01:10:36.005Z,538.6370
2022-10-17T01:10:47.126Z,539.9460
2022-10-17T01:10:58.327Z,537.7690
2022-10-17T01:11:09.536Z,537.7690
2022-10-17T01:11:20.725Z,540.3830
2022-10-17T01:11:31.895Z,541.7000
2022-10-17T01:11:43.125Z,537.7690
2022-10-17T01:11:54.326Z,542.1410
2022-10-17T01:12:05.534Z,541.7000
2022-10-17T01:12:16.733Z,542.5820
2022-10-17T01:12:28.033Z,541.2610
2022-10-17T01:12:39.166Z,542.1410
2022-10-17T01:12:50.325Z,544.3540
2022-10-17T01:13:01.530Z,542.1410
2022-10-17T01:13:12.734Z,542.1410
2022-10-17T01:13:23.936Z,543.0240
2022-10-17T01:13:35.155Z,543.0240
2022-10-17T01:13:46.356Z,543.0240
2022-10-17T01:13:57.533Z,542.1410
2022-10-17T01:14:08.747Z,545.2440
2022-10-17T01:14:19.803Z,543.0240
2022-10-17T01:14:30.875Z,544.7980
2022-10-17T01:14:42.006Z,543.9100
2022-10-17T01:14:53.232Z,547.0330
2022-10-17T01:15:04.459Z,546.5850
2022-10-17T01:15:15.607Z,545.2440
2022-10-17T01:15:26.812Z,544.7980
2022-10-17T01:15:38.005Z,543.9100
2022-10-17T01:15:49.205Z,544.7980
2022-10-17T01:16:00.415Z,546.1370
2022-10-17T01:16:11.615Z,547.4820
2022-10-17T01:16:22.675Z,548.8340
2022-10-17T01:16:33.758Z,546.5850
2022-10-17T01:16:44.904Z,547.0330
2022-10-17T01:16:56.093Z,548.3830
2022-10-17T01:17:07.285Z,548.8340
2022-10-17T01:17:18.486Z,549.2860
2022-10-17T01:17:29.693Z,550.1920
2022-10-17T01:17:40.885Z,549.2860
2022-10-17T01:17:52.085Z,549.2860
2022-10-17T01:18:03.142Z,548.8340
2022-10-17T01:18:14.198Z,550.1920
2022-10-17T01:18:25.366Z,552.0140
2022-10-17T01:18:36.446Z,551.1020
2022-10-17T01:18:47.516Z,550.1920
2022-10-17T01:18:58.654Z,549.7390
2022-10-17T01:19:09.845Z,554.3090
2022-10-17T01:19:21.087Z,551.5580
2022-10-17T01:19:32.247Z,552.9300
2022-10-17T01:19:43.446Z,552.0140
2022-10-17T01:19:54.646Z,552.0140
2022-10-17T01:20:05.846Z,552.0140
2022-10-17T01:20:17.045Z,552.4720
2022-10-17T01:20:28.245Z,552.9300
2022-10-17T01:20:39.296Z,551.1020
2022-10-17T01:20:50.367Z,552.9300
2022-10-17T01:21:01.543Z,552.4720
2022-10-17T01:21:12.726Z,554.3090
2022-10-17T01:21:23.925Z,555.6940
2022-10-17T01:21:35.134Z,552.9300
2022-10-17T01:21:46.333Z,556.6220
2022-10-17T01:21:57.533Z,554.7700
2022-10-17T01:22:08.727Z,552.9300
2022-10-17T01:22:19.945Z,554.7700
2022-10-17T01:22:31.303Z,556.1580
2022-10-17T01:22:42.706Z,555.2320
2022-10-17T01:22:53.854Z,553.3890
2022-10-17T01:23:05.053Z,555.2320
2022-10-17T01:23:16.253Z,557.5530
2022-10-17T01:23:27.455Z,556.6220
2022-10-17T01:23:38.536Z,554.7700
2022-10-17T01:23:49.765Z,554.3090
2022-10-17T01:24:00.835Z,555.6940
2022-10-17T01:24:11.925Z,554.7700
2022-10-17T01:24:23.125Z,557.0870
2022-10-17T01:24:34.173Z,555.6940
2022-10-17T01:24:45.254Z,556.1580
2022-10-17T01:24:56.405Z,555.6940
2022-10-17T01:25:07.616Z,557.0870
2022-10-17T01:25:18.805Z,556.6220
2022-10-17T01:25:30.006Z,555.6940
2022-10-17T01:25:41.205Z,555.6940
2022-10-17T01:25:52.414Z,555.6940
2022-10-17T01:26:03.605Z,554.3090
2022-10-17T01:26:14.810Z,555.6940
2022-10-17T01:26:26.016Z,554.7700
2022-10-17T01:26:37.077Z,556.6220
2022-10-17T01:26:48.147Z,557.5530
2022-10-17T01:26:59.298Z,558.0190
2022-10-17T01:27:10.343Z,554.7700
2022-10-17T01:27:21.395Z,556.6220
2022-10-17T01:27:32.661Z,557.5530
2022-10-17T01:27:43.765Z,555.6940
2022-10-17T01:27:54.975Z,556.1580
2022-10-17T01:28:06.165Z,558.0190
2022-10-17T01:28:17.378Z,555.6940
2022-10-17T01:28:28.739Z,556.6220
2022-10-17T01:28:40.298Z,553.8480
2022-10-17T01:28:51.406Z,553.8480
2022-10-17T01:29:02.486Z,555.6940
2022-10-17T01:29:13.696Z,555.2320
2022-10-17T01:29:25.255Z,553.8480
2022-10-17T01:29:36.436Z,555.2320
2022-10-17T01:29:47.494Z,553.3890
2022-10-17T01:29:58.569Z,558.0190
2022-10-17T01:30:09.695Z,554.7700
2022-10-17T01:30:20.886Z,554.7700
2022-10-17T01:30:32.136Z,555.6940
2022-10-17T01:30:43.185Z,555.6940
2022-10-17T01:30:54.245Z,556.6220
2022-10-17T01:31:05.303Z,556.6220
2022-10-17T01:31:16.346Z,555.2320
2022-10-17T01:31:27.452Z,555.6940
2022-10-17T01:31:38.647Z,554.7700
2022-10-17T01:31:49.845Z,555.6940
2022-10-17T01:32:00.966Z,554.7700
2022-10-17T01:32:12.065Z,558.4870
2022-10-17T01:32:23.125Z,553.8480
2022-10-17T01:32:34.337Z,554.7700
2022-10-17T01:32:45.378Z,553.8480
2022-10-17T01:32:56.445Z,557.5530
2022-10-17T01:33:07.486Z,554.7700
2022-10-17T01:33:18.545Z,557.0870
2022-10-17T01:33:29.693Z,556.1580
2022-10-17T01:33:40.916Z,555.6940
2022-10-17T01:33:52.113Z,557.0870
2022-10-17T01:34:03.285Z,558.4870
2022-10-17T01:34:14.486Z,558.0190
2022-10-17T01:34:25.720Z,555.6940
2022-10-17T01:34:36.904Z,552.9300
2022-10-17T01:34:48.086Z,555.6940
2022-10-17T01:34:59.285Z,555.6940
2022-10-17T01:35:10.365Z,552.9300
2022-10-17T01:35:21.425Z,556.6220
2022-10-17T01:35:32.565Z,554.7700
2022-10-17T01:35:43.773Z,558.0190
2022-10-17T01:35:54.966Z,558.4870
2022-10-17T01:36:06.139Z,558.4870
2022-10-17T01:36:17.215Z,555.6940
2022-10-17T01:36:28.257Z,559.4240
2022-10-17T01:36:39.454Z,557.0870
2022-10-17T01:36:50.659Z,554.7700
2022-10-17T01:37:01.847Z,555.6940
2022-10-17T01:37:13.054Z,555.2320
2022-10-17T01:37:24.260Z,558.4870
2022-10-17T01:37:35.453Z,551.1020
2022-10-17T01:37:46.720Z,555.2320
2022-10-17T01:37:57.848Z,556.6220
2022-10-17T01:38:09.059Z,555.6940
2022-10-17T01:38:20.117Z,555.2320
2022-10-17T01:38:31.176Z,555.2320
2022-10-17T01:38:42.362Z,555.2320
2022-10-17T01:38:53.413Z,555.6940
2022-10-17T01:39:04.483Z,555.2320
2022-10-17T01:39:15.605Z,557.0870
2022-10-17T01:39:28.103Z,555.6940
2022-10-17T01:39:43.936Z,549.7390
2022-10-17T01:39:56.607Z,543.9100
2022-10-17T01:40:07.647Z,547.4820
2022-10-17T01:40:18.715Z,547.4820
2022-10-17T01:40:29.853Z,547.9320
2022-10-17T01:40:40.915Z,549.7390
2022-10-17T01:40:52.007Z,552.0140
2022-10-17T01:41:03.126Z,551.1020
2022-10-17T01:41:14.177Z,550.6470
2022-10-17T01:41:25.256Z,552.0140
2022-10-17T01:41:36.405Z,552.0140
2022-10-17T01:41:47.606Z,553.8480
2022-10-17T01:41:58.805Z,554.7700
2022-10-17T01:42:10.016Z,551.1020
2022-10-17T01:42:21.091Z,550.1920
2022-10-17T01:42:32.150Z,548.8340
2022-10-17T01:42:43.287Z,552.9300
2022-10-17T01:42:54.493Z,551.1020
2022-10-17T01:43:05.695Z,552.0140
2022-10-17T01:43:16.886Z,551.1020
2022-10-17T01:43:28.085Z,550.1920
2022-10-17T01:43:39.295Z,546.1370
2022-10-17T01:43:50.515Z,551.5580
2022-10-17T01:44:01.686Z,552.0140
2022-10-17T01:44:12.894Z,551.1020
2022-10-17T01:44:23.972Z,550.1920
2022-10-17T01:44:35.039Z,552.0140
2022-10-17T01:44:46.186Z,554.3090
2022-10-17T01:44:57.366Z,552.0140
2022-10-17T01:45:08.589Z,555.6940
2022-10-17T01:45:19.765Z,552.0140
2022-10-17T01:45:30.966Z,550.1920
2022-10-17T01:45:42.165Z,552.0140
2022-10-17T01:45:53.373Z,552.9300
2022-10-17T01:46:04.573Z,551.5580
2022-10-17T01:46:15.778Z,552.0140
2022-10-17T01:46:26.824Z,555.6940
2022-10-17T01:46:37.855Z,554.7700
2022-10-17T01:46:49.077Z,551.5580
2022-10-17T01:47:00.251Z,549.2860
2022-10-17T01:47:11.449Z,552.9300
2022-10-17T01:47:22.646Z,554.7700
2022-10-17T01:47:33.848Z,554.7700
2022-10-17T01:47:45.054Z,553.8480
2022-10-17T01:47:56.245Z,556.1580
2022-10-17T01:48:07.455Z,550.1920
2022-10-17T01:48:18.658Z,552.9300
2022-10-17T01:48:29.715Z,552.0140
2022-10-17T01:48:40.766Z,554.3090
2022-10-17T01:48:51.965Z,554.7700
2022-10-17T01:49:03.125Z,556.6220
2022-10-17T01:49:14.335Z,552.9300
2022-10-17T01:49:25.533Z,552.9300
2022-10-17T01:49:36.725Z,555.2320
2022-10-17T01:49:47.926Z,552.9300
2022-10-17T01:49:59.165Z,553.8480
2022-10-17T01:50:10.325Z,554.7700
2022-10-17T01:50:21.526Z,555.2320
2022-10-17T01:50:32.602Z,557.5530
2022-10-17T01:50:43.656Z,555.6940
2022-10-17T01:50:54.816Z,558.0190
2022-10-17T01:51:06.017Z,552.4720
2022-10-17T01:51:17.206Z,557.5530
2022-10-17T01:51:28.413Z,558.9550
2022-10-17T01:51:39.614Z,553.3890
2022-10-17T01:51:50.808Z,554.3090
2022-10-17T01:52:02.007Z,559.8940
2022-10-17T01:52:13.148Z,556.1580
2022-10-17T01:52:24.192Z,559.4240
2022-10-17T01:52:35.332Z,556.6220
2022-10-17T01:52:46.493Z,555.2320
2022-10-17T01:52:57.535Z,556.6220
2022-10-17T01:53:08.608Z,558.0190
2022-10-17T01:53:19.766Z,555.2320
2022-10-17T01:53:30.966Z,561.3070
2022-10-17T01:53:42.013Z,556.6220
2022-10-17T01:53:53.077Z,558.4870
2022-10-17T01:54:04.245Z,557.0870
2022-10-17T01:54:15.445Z,556.6220
2022-10-17T01:54:26.657Z,554.3090
2022-10-17T01:54:37.847Z,560.3640
2022-10-17T01:54:49.097Z,558.9550
2022-10-17T01:55:00.245Z,557.5530
2022-10-17T01:55:11.445Z,557.5530
2022-10-17T01:55:22.646Z,556.6220
2022-10-17T01:55:33.857Z,558.4870
2022-10-17T01:55:44.945Z,559.4240
2022-10-17T01:56:07.129Z,559.4240
2022-10-17T01:56:18.329Z,558.4870
2022-10-17T01:56:29.527Z,558.9550
2022-10-17T01:56:40.737Z,557.5530
2022-10-17T01:56:51.927Z,561.7800
2022-10-17T01:57:03.127Z,561.3070
2022-10-17T01:57:14.326Z,560.3640
2022-10-17T01:57:25.909Z,560.3640
2022-10-17T01:57:37.384Z,558.0190
2022-10-17T01:57:48.573Z,558.9550
2022-10-17T01:57:59.766Z,561.7800
2022-10-17T01:58:10.806Z,558.4870
2022-10-17T01:58:21.852Z,560.3640
2022-10-17T01:58:33.053Z,562.7280
2022-10-17T01:58:44.103Z,559.4240
2022-10-17T01:58:55.195Z,558.9550
2022-10-17T01:59:06.245Z,559.8940
2022-10-17T01:59:17.296Z,560.8350
2022-10-17T01:59:28.405Z,559.8940
2022-10-17T01:59:39.614Z,560.8350
2022-10-17T01:59:50.656Z,561.7800
2022-10-17T02:00:01.729Z,559.4240
2022-10-17T02:00:12.911Z,560.3640
2022-10-17T02:00:24.085Z,560.3640
2022-10-17T02:00:35.285Z,561.3070
2022-10-17T02:00:46.505Z,560.3640
2022-10-17T02:00:57.589Z,561.3070
2022-10-17T02:01:08.657Z,562.2540
2022-10-17T02:01:19.820Z,561.3070
2022-10-17T02:01:31.089Z,562.7280
2022-10-17T02:01:42.211Z,563.2040
2022-10-17T02:01:53.435Z,562.2540
2022-10-17T02:02:04.454Z,561.7800
2022-10-17T02:02:15.526Z,564.1570
2022-10-17T02:02:26.663Z,565.5920
2022-10-17T02:02:37.846Z,560.3640
2022-10-17T02:02:49.047Z,560.3640
2022-10-17T02:03:00.260Z,562.7280
2022-10-17T02:03:11.454Z,565.1130
2022-10-17T02:03:22.654Z,562.2540
2022-10-17T02:03:33.846Z,565.1130
2022-10-17T02:03:45.045Z,563.6800
2022-10-17T02:03:56.284Z,562.2540
2022-10-17T02:04:07.445Z,564.1570
2022-10-17T02:04:18.647Z,561.3070
2022-10-17T02:04:29.745Z,563.6800
2022-10-17T02:04:40.814Z,562.7280
2022-10-17T02:04:51.969Z,561.7800
2022-10-17T02:05:03.129Z,564.1570
2022-10-17T02:05:14.185Z,563.6800
2022-10-17T02:05:25.255Z,562.7280
2022-10-17T02:05:36.414Z,565.5920
2022-10-17T02:05:47.613Z,563.6800
2022-10-17T02:05:58.805Z,565.1130
2022-10-17T02:06:10.014Z,567.0350
2022-10-17T02:06:21.214Z,566.5530
2022-10-17T02:06:32.407Z,564.6340
2022-10-17T02:06:43.605Z,563.2040
2022-10-17T02:06:54.805Z,563.6800
2022-10-17T02:07:06.017Z,563.2040
2022-10-17T02:07:17.077Z,563.2040
2022-10-17T02:07:28.547Z,564.6340
2022-10-17T02:07:39.946Z,563.2040
2022-10-17T02:07:51.133Z,564.1570
2022-10-17T02:08:02.335Z,564.6340
2022-10-17T02:08:13.413Z,565.1130
2022-10-17T02:08:24.484Z,569.4560
2022-10-17T02:08:35.606Z,566.5530
2022-10-17T02:08:46.818Z,566.5530
2022-10-17T02:08:58.046Z,566.0720
2022-10-17T02:09:09.206Z,565.5920
2022-10-17T02:09:20.407Z,567.0350
2022-10-17T02:09:31.606Z,564.1570
2022-10-17T02:09:42.814Z,565.5920
2022-10-17T02:09:54.013Z,565.1130
2022-10-17T02:10:05.209Z,567.0350
2022-10-17T02:10:16.245Z,566.0720
2022-10-17T02:10:27.297Z,565.5920
2022-10-17T02:10:38.494Z,568.9700
2022-10-17T02:10:49.686Z,567.0350
2022-10-17T02:11:00.889Z,566.5530
2022-10-17T02:11:12.082Z,569.4560
2022-10-17T02:11:23.293Z,569.4560
2022-10-17T02:11:34.485Z,568.9700
2022-10-17T02:11:45.688Z,568.9700
2022-10-17T02:11:56.886Z,568.9700